Time;durP1;ratioP1;P1;durP2;ratioP2;P2;SDS_P1;SDS_P2;PMS_P1;PMS_P2;Temp;Humidity;BMP_temperature;BMP_pressure;BME280_temperature;BME280_humidity;BME280_pressure;Samples;Min_cycle;Max_cycle;Signal;HPM_P1;HPM_P2
2022/04/16 00:01:23;;;;;;;;;13.75;13.75;;;;;15.82;52.60;102005.97;5069976;28;45827;-85
2022/04/16 00:03:48;;;;;;;;;15.00;15.00;;;;;15.97;52.26;102043.59;5070632;28;46713;-84
2022/04/16 00:06:14;;;;;;;;;14.75;14.25;;;;;16.22;52.73;102090.38;5067642;28;45994;-85
2022/04/16 00:08:40;;;;;;;;;16.00;15.00;;;;;16.18;52.75;102081.41;5051974;28;45488;-85
2022/04/16 00:11:06;;;;;;;;;14.50;13.75;;;;;15.71;52.99;102006.50;5070375;28;45350;-83
2022/04/16 00:13:32;;;;;;;;;16.50;16.00;;;;;15.92;53.06;102046.09;5069565;28;45478;-84
2022/04/16 00:15:57;;;;;;;;;12.75;12.00;;;;;16.11;52.84;102073.22;5070110;28;45441;-85
2022/04/16 00:18:23;;;;;;;;;14.25;13.00;;;;;15.98;53.23;102062.19;5069929;28;45400;-85
2022/04/16 00:20:49;;;;;;;;;17.00;16.50;;;;;15.81;53.52;102042.19;5069190;28;45330;-84
2022/04/16 00:23:16;;;;;;;;;13.50;13.50;;;;;15.76;52.98;102043.75;5069477;28;46497;-82
2022/04/16 00:25:42;;;;;;;;;12.25;12.00;;;;;15.69;53.87;102031.13;5051751;28;45521;-85
2022/04/16 00:28:08;;;;;;;;;18.00;17.00;;;;;15.86;54.26;102059.13;5069443;28;45473;-84
2022/04/16 00:30:40;;;;;;;;;14.50;13.75;;;;;15.90;53.78;102076.94;5069811;28;45481;-83
2022/04/16 00:33:12;;;;;;;;;15.00;14.50;;;;;15.65;53.87;102026.56;5070123;28;45520;-85
2022/04/16 00:35:39;;;;;;;;;16.50;16.25;;;;;15.84;54.29;102066.13;5069135;28;45879;-85
2022/04/16 00:38:05;;;;;;;;;17.25;17.00;;;;;15.65;54.49;102038.06;5068159;28;45611;-84
2022/04/16 00:40:30;;;;;;;;;15.00;14.75;;;;;15.80;54.41;102072.16;5069387;28;45561;-83
2022/04/16 00:42:57;;;;;;;;;17.50;14.00;;;;;15.49;54.32;102012.75;5070195;28;45838;-85
2022/04/16 00:45:22;;;;;;;;;16.25;16.25;;;;;15.59;54.33;102036.94;5068851;28;45426;-82
2022/04/16 00:47:48;;;;;;;;;18.00;18.00;;;;;15.49;54.26;102020.72;5067543;27;45786;-83
2022/04/16 00:50:14;;;;;;;;;18.50;17.50;;;;;15.76;54.34;102064.03;5064215;28;45592;-83
2022/04/16 00:52:40;;;;;;;;;17.25;16.25;;;;;15.44;54.54;102008.16;5050725;28;47095;-83
2022/04/16 00:55:08;;;;;;;;;18.25;18.25;;;;;15.58;54.53;102035.16;5068785;28;45414;-84
2022/04/16 00:57:38;;;;;;;;;17.75;17.25;;;;;15.52;54.63;102027.88;5070678;28;45949;-83
2022/04/16 01:00:05;;;;;;;;;17.25;16.75;;;;;15.64;54.36;102048.63;5072350;28;45418;-83
2022/04/16 01:02:30;;;;;;;;;21.75;20.50;;;;;15.59;55.01;102053.75;5072195;28;46180;-83
2022/04/16 01:04:56;;;;;;;;;18.25;16.75;;;;;15.56;54.88;102044.75;5072035;28;45843;-82
2022/04/16 01:07:25;;;;;;;;;15.00;14.00;;;;;15.48;54.94;102037.47;5053756;28;45880;-84
2022/04/16 01:09:51;;;;;;;;;16.25;16.25;;;;;15.43;54.91;102027.56;5071990;28;45695;-83
2022/04/16 01:12:17;;;;;;;;;17.75;16.75;;;;;15.46;54.87;102036.50;5053258;28;48093;-82
2022/04/16 01:14:42;;;;;;;;;19.00;18.25;;;;;15.37;55.25;102019.38;5053759;28;46038;-83
2022/04/16 01:17:09;;;;;;;;;14.75;14.00;;;;;15.15;55.11;101994.78;5072141;28;45620;-83
2022/04/16 01:19:37;;;;;;;;;18.00;18.00;;;;;15.18;55.22;101994.00;5062821;28;45716;-83
2022/04/16 01:22:05;;;;;;;;;15.25;15.00;;;;;15.54;55.23;102062.38;5064842;28;46502;-83
2022/04/16 01:24:30;;;;;;;;;17.75;16.25;;;;;15.39;55.30;102037.13;5053091;28;45877;-82
2022/04/16 01:26:58;;;;;;;;;13.75;13.25;;;;;15.18;55.14;102004.59;5072193;28;45390;-82
2022/04/16 01:29:24;;;;;;;;;15.25;14.75;;;;;15.41;55.26;102048.66;5071882;28;45773;-84
2022/04/16 01:31:49;;;;;;;;;18.00;17.25;;;;;15.14;55.24;102002.69;5072408;28;45581;-83
2022/04/16 01:34:17;;;;;;;;;16.25;15.75;;;;;15.42;55.59;102054.91;5071093;28;45443;-82
2022/04/16 01:36:43;;;;;;;;;19.00;17.75;;;;;15.39;55.81;102047.72;5053786;28;45469;-83
2022/04/16 01:39:08;;;;;;;;;17.50;16.75;;;;;15.19;55.64;102016.97;5071531;28;45703;-82
2022/04/16 01:41:34;;;;;;;;;19.75;18.50;;;;;15.31;55.81;102033.31;5052760;28;48498;-83
2022/04/16 01:43:59;;;;;;;;;20.75;19.25;;;;;15.08;55.73;101992.78;5072126;28;45493;-81
2022/04/16 01:46:25;;;;;;;;;17.75;17.00;;;;;15.28;56.04;102033.22;5071833;28;45846;-83
2022/04/16 01:48:53;;;;;;;;;20.50;18.50;;;;;15.24;55.88;102020.69;5066699;28;45765;-82
2022/04/16 01:51:20;;;;;;;;;20.00;19.25;;;;;15.23;55.77;102018.91;5067508;28;45568;-84
2022/04/16 01:53:46;;;;;;;;;22.75;19.25;;;;;15.33;56.10;102042.22;5067288;28;45415;-82
2022/04/16 01:56:11;;;;;;;;;19.75;19.75;;;;;15.44;56.38;102055.84;5070817;28;45274;-82
2022/04/16 01:58:38;;;;;;;;;18.50;18.50;;;;;15.22;56.42;102020.66;5071551;28;45650;-82
2022/04/16 02:01:07;;;;;;;;;20.75;18.50;;;;;15.36;56.28;102050.25;5071284;28;45602;-82
2022/04/16 02:03:33;;;;;;;;;19.75;19.50;;;;;15.34;56.18;102049.31;5044603;28;45857;-82
2022/04/16 02:05:59;;;;;;;;;20.50;20.00;;;;;15.20;56.25;102029.38;5052801;28;45709;-82
2022/04/16 02:08:25;;;;;;;;;24.50;22.25;;;;;14.95;56.19;101990.50;5064742;28;45668;-82
2022/04/16 02:10:50;;;;;;;;;19.25;17.50;;;;;15.09;56.38;102013.09;5071069;28;46679;-82
2022/04/16 02:13:15;;;;;;;;;22.00;20.00;;;;;15.39;56.70;102063.63;5071068;28;45475;-83
2022/04/16 02:15:41;;;;;;;;;20.50;19.25;;;;;15.14;56.59;102026.50;5053094;28;45391;-82
2022/04/16 02:18:06;;;;;;;;;20.75;19.75;;;;;15.09;56.68;102017.50;5070925;28;45431;-83
2022/04/16 02:20:32;;;;;;;;;22.25;20.50;;;;;15.34;56.56;102057.25;5070481;28;46344;-84
2022/04/16 02:22:57;;;;;;;;;24.00;21.00;;;;;15.27;56.65;102046.38;5071141;28;45702;-83
2022/04/16 02:25:25;;;;;;;;;26.50;23.00;;;;;15.17;56.72;102035.47;5070896;28;45543;-83
2022/04/16 02:27:51;;;;;;;;;26.00;24.00;;;;;15.20;56.33;102046.16;5053195;28;45468;-84
2022/04/16 02:30:18;;;;;;;;;25.00;21.75;;;;;15.05;56.88;102028.81;5070552;28;46403;-83
2022/04/16 02:32:52;;;;;;;;;26.25;25.00;;;;;15.02;56.79;102018.09;5071219;28;45492;-82
2022/04/16 02:35:18;;;;;;;;;26.50;23.50;;;;;15.16;56.88;102056.59;5070551;28;45782;-83
2022/04/16 02:37:44;;;;;;;;;28.25;26.50;;;;;14.79;57.08;101994.34;5071188;28;45621;-82
2022/04/16 02:40:10;;;;;;;;;22.25;21.25;;;;;15.12;57.18;102054.66;5069629;28;46921;-82
2022/04/16 02:42:37;;;;;;;;;24.50;23.50;;;;;14.96;57.15;102038.22;5070754;28;46128;-83
2022/04/16 02:47:48;;;;;;;;;28.50;28.00;;;;;14.84;57.45;102032.47;5070971;28;45579;-82
2022/04/16 02:50:14;;;;;;;;;27.25;25.00;;;;;14.76;57.53;102015.38;5070033;28;45803;-82
2022/04/16 02:52:41;;;;;;;;;28.00;26.25;;;;;14.83;57.83;102035.06;5070764;28;45417;-84
2022/04/16 02:55:07;;;;;;;;;28.50;24.25;;;;;14.58;57.65;101988.22;5070027;28;45536;-83
2022/04/16 02:57:33;;;;;;;;;25.00;23.25;;;;;14.59;57.83;101990.03;5069324;28;45426;-83
2022/04/16 02:59:58;;;;;;;;;27.75;24.25;;;;;14.49;57.99;101979.97;5043219;28;47249;-83
2022/04/16 03:02:24;;;;;;;;;26.00;25.25;;;;;14.38;58.05;101972.47;5068051;28;45751;-83
2022/04/16 03:04:50;;;;;;;;;28.00;26.75;;;;;14.74;58.29;102034.72;5070648;28;45466;-83
2022/04/16 03:07:16;;;;;;;;;31.00;28.25;;;;;14.49;58.10;102004.66;5070559;28;45755;-83
2022/04/16 03:09:41;;;;;;;;;28.50;27.00;;;;;14.62;57.93;102029.84;5069958;28;45664;-82
2022/04/16 03:12:07;;;;;;;;;32.25;27.75;;;;;14.58;58.18;102030.56;5069935;28;45581;-82
2022/04/16 03:17:31;;;;;;;;;28.50;27.50;;;;;14.40;58.50;102018.38;5070179;28;45725;-83
2022/04/16 03:19:56;;;;;;;;;25.75;25.50;;;;;14.54;58.66;102044.53;5069822;28;45549;-82
2022/04/16 03:22:22;;;;;;;;;28.50;26.25;;;;;14.33;58.68;102008.41;5069913;28;45752;-83
2022/04/16 03:24:47;;;;;;;;;30.75;28.50;;;;;14.27;58.74;101997.59;5069913;28;45584;-83
2022/04/16 03:27:13;;;;;;;;;32.00;30.00;;;;;14.20;58.61;101992.91;5051560;28;45636;-83
2022/04/16 03:29:38;;;;;;;;;30.50;28.50;;;;;14.28;58.84;102017.88;5065156;27;45642;-83
2022/04/16 03:32:05;;;;;;;;;30.75;27.75;;;;;14.25;58.93;102019.53;5054163;28;45631;-83
2022/04/16 03:34:31;;;;;;;;;33.50;29.00;;;;;14.39;59.21;102031.56;5048428;28;45484;-84
2022/04/16 03:36:57;;;;;;;;;29.50;28.25;;;;;14.27;59.04;102018.75;5070607;28;45486;-85
2022/04/16 03:39:22;;;;;;;;;35.25;29.50;;;;;14.15;58.81;101999.75;5069152;28;45628;-83
2022/04/16 03:41:48;;;;;;;;;30.75;29.25;;;;;14.12;59.04;102002.25;5069413;28;45696;-83
2022/04/16 03:44:13;;;;;;;;;27.75;27.25;;;;;13.99;59.10;101979.75;5069610;28;45556;-83
2022/04/16 03:46:39;;;;;;;;;33.75;29.50;;;;;14.35;59.20;102041.13;5068362;28;45534;-82
2022/04/16 03:49:04;;;;;;;;;27.50;26.75;;;;;14.11;59.08;102008.41;5062898;28;45667;-82
2022/04/16 03:51:29;;;;;;;;;30.25;28.50;;;;;14.35;59.08;102042.84;5069497;28;45384;-81
2022/04/16 03:53:55;;;;;;;;;32.25;28.25;;;;;14.07;59.07;101996.78;5051329;28;45456;-84
2022/04/16 04:01:48;;;;;;;;;32.00;30.25;;;;;14.23;59.44;102032.66;5069427;28;45375;-83
2022/04/16 04:04:14;;;;;;;;;28.00;26.75;;;;;14.09;59.37;102016.28;5069021;28;45525;-83
2022/04/16 04:06:40;;;;;;;;;29.50;27.00;;;;;14.17;59.15;102032.44;5051518;28;45340;-83
2022/04/16 04:09:06;;;;;;;;;33.00;31.00;;;;;13.87;59.52;101987.16;5068675;28;45896;-82
2022/04/16 04:11:32;;;;;;;;;30.00;29.00;;;;;13.83;59.42;101991.41;5068175;28;45543;-81
2022/04/16 04:13:57;;;;;;;;;33.75;29.00;;;;;13.88;59.39;102002.16;5058161;28;45416;-82
2022/04/16 04:16:23;;;;;;;;;27.25;25.00;;;;;13.72;59.56;101982.13;5048767;28;45721;-83
2022/04/16 04:18:48;;;;;;;;;29.75;29.00;;;;;13.89;59.56;102018.09;5060345;27;45619;-85
2022/04/16 04:21:13;;;;;;;;;30.50;28.00;;;;;13.76;59.51;102002.56;5068541;28;45494;-82
2022/04/16 04:23:39;;;;;;;;;36.00;33.33;;;;;13.72;59.60;101995.34;5051124;28;45486;-83
2022/04/16 04:26:04;;;;;;;;;33.00;31.33;;;;;13.77;59.84;102012.28;5069211;28;45517;-81
2022/04/16 04:28:29;;;;;;;;;30.00;30.00;;;;;13.93;59.81;102043.78;5069161;28;46549;-82
2022/04/16 04:30:55;;;;;;;;;31.75;30.25;;;;;13.61;59.97;101989.63;5051376;28;45501;-83
2022/04/16 04:33:20;;;;;;;;;25.00;23.25;;;;;13.71;60.01;102013.78;5072263;28;45513;-83
2022/04/16 04:35:46;;;;;;;;;36.00;31.25;;;;;13.65;60.01;102010.06;5072736;28;45633;-82
2022/04/16 04:38:11;;;;;;;;;29.75;29.25;;;;;13.72;59.85;102020.88;5072383;28;46541;-84
2022/04/16 04:40:36;;;;;;;;;28.75;27.75;;;;;13.92;60.00;102060.50;5072068;28;45368;-83
2022/04/16 04:43:02;;;;;;;;;31.25;29.50;;;;;13.88;60.00;102060.31;5054688;28;45363;-82
2022/04/16 04:45:28;;;;;;;;;32.25;30.75;;;;;13.92;60.02;102078.09;5072839;27;45548;-81
2022/04/16 04:47:53;;;;;;;;;39.50;32.50;;;;;13.75;59.92;102056.25;5054520;28;46443;-83
2022/04/16 04:50:18;;;;;;;;;29.50;29.50;;;;;13.57;59.84;102021.13;5070689;27;45422;-83
2022/04/16 04:52:44;;;;;;;;;37.67;33.00;;;;;13.64;59.62;102037.31;5063304;28;45563;-83
2022/04/16 04:55:12;;;;;;;;;26.25;25.25;;;;;13.51;59.77;102010.31;5056271;28;45442;-81
2022/04/16 04:57:37;;;;;;;;;31.50;31.00;;;;;13.86;59.75;102080.50;5062490;28;45699;-82
2022/04/16 05:00:05;;;;;;;;;31.25;29.25;;;;;13.72;59.65;102049.94;5059183;28;45680;-82
2022/04/16 05:02:39;;;;;;;;;30.00;29.25;;;;;13.64;59.40;102034.66;5064263;28;46109;-83
2022/04/16 05:05:04;;;;;;;;;33.50;31.25;;;;;13.48;59.61;102018.97;5063769;28;45514;-84
2022/04/16 05:07:30;;;;;;;;;37.50;33.75;;;;;13.62;59.67;102053.91;5058940;28;46532;-84
2022/04/16 05:09:55;;;;;;;;;33.00;29.67;;;;;13.58;59.46;102049.34;5064056;27;47345;-85
2022/04/16 05:12:20;;;;;;;;;36.00;31.67;;;;;13.61;59.34;102054.75;5056200;28;45528;-84
2022/04/16 05:14:46;;;;;;;;;33.75;31.00;;;;;13.74;59.52;102079.94;5059151;28;45749;-83
2022/04/16 05:17:11;;;;;;;;;33.67;30.00;;;;;13.66;59.42;102069.06;5046429;28;48207;-83
2022/04/16 05:19:36;;;;;;;;;33.67;32.00;;;;;13.37;59.24;102021.16;5067624;28;45394;-82
2022/04/16 05:22:02;;;;;;;;;34.00;30.75;;;;;13.66;59.07;102085.81;5051476;28;45546;-84
2022/04/16 05:24:27;;;;;;;;;33.00;30.75;;;;;13.45;59.14;102046.97;5058027;28;45774;-83
2022/04/16 05:26:53;;;;;;;;;33.67;31.33;;;;;13.49;59.30;102060.38;5033767;28;47363;-82
2022/04/16 05:29:18;;;;;;;;;32.50;32.00;;;;;13.40;59.30;102052.09;5068558;28;45410;-82
2022/04/16 05:31:43;;;;;;;;;31.00;30.25;;;;;13.43;59.18;102060.13;5049082;27;45637;-83
2022/04/16 05:34:18;;;;;;;;;33.00;30.25;;;;;13.57;59.21;102079.22;5069828;27;45698;-81
2022/04/16 05:36:45;;;;;;;;;31.50;28.50;;;;;13.50;59.04;102070.16;5066788;27;45568;-82
2022/04/16 05:39:11;;;;;;;;;31.75;30.00;;;;;13.60;58.85;102101.41;5069295;27;45378;-82
2022/04/16 05:41:37;;;;;;;;;37.25;33.00;;;;;13.51;59.18;102092.19;5060810;28;45688;-81
2022/04/16 05:44:04;;;;;;;;;34.25;31.50;;;;;13.39;59.34;102072.28;5055207;28;45583;-81
2022/04/16 05:46:32;;;;;;;;;31.25;29.50;;;;;13.42;59.51;102077.72;5063162;28;45588;-85
2022/04/16 05:48:58;;;;;;;;;33.00;30.75;;;;;13.49;59.25;102089.44;5065597;27;46965;-82
2022/04/16 05:51:25;;;;;;;;;36.75;33.00;;;;;13.62;59.24;102110.28;5064315;28;45897;-83
2022/04/16 05:53:51;;;;;;;;;35.50;32.00;;;;;13.41;59.23;102082.94;5049414;28;45767;-83
2022/04/16 05:56:18;;;;;;;;;32.25;31.25;;;;;13.70;59.65;102126.50;5064386;27;46024;-82
2022/04/16 05:58:44;;;;;;;;;38.00;32.00;;;;;13.70;59.31;102130.88;5057418;28;45843;-84
2022/04/16 06:01:10;;;;;;;;;36.75;32.75;;;;;13.68;59.10;102125.50;5065050;28;45494;-82
2022/04/16 06:03:41;;;;;;;;;36.00;33.50;;;;;13.68;59.14;102130.78;5073254;27;45956;-82
2022/04/16 06:06:10;;;;;;;;;31.75;31.50;;;;;13.29;59.46;102064.78;5091398;27;45591;-82
2022/04/16 06:08:36;;;;;;;;;34.00;32.25;;;;;13.48;59.32;102105.25;5090300;27;45901;-84
2022/04/16 06:11:03;;;;;;;;;37.00;33.75;;;;;13.47;59.20;102112.25;5091770;27;45280;-82
2022/04/16 06:13:30;;;;;;;;;33.25;31.75;;;;;13.55;59.37;102112.63;5091237;27;45960;-83
2022/04/16 06:15:56;;;;;;;;;34.00;32.25;;;;;13.56;59.34;102120.59;5079521;27;45533;-83
2022/04/16 06:18:21;;;;;;;;;37.00;34.00;;;;;13.64;59.52;102135.06;5070917;28;45442;-81
2022/04/16 06:20:46;;;;;;;;;39.75;34.00;;;;;13.74;59.44;102144.25;5071553;28;45555;-84
2022/04/16 06:23:12;;;;;;;;;43.00;36.00;;;;;13.48;59.41;102107.88;5070724;28;45729;-82
2022/04/16 06:25:40;;;;;;;;;41.50;34.75;;;;;13.62;59.60;102120.88;5070717;28;45596;-83
2022/04/16 06:28:05;;;;;;;;;39.25;34.25;;;;;13.64;59.46;102126.19;5066424;28;45877;-82
2022/04/16 06:30:31;;;;;;;;;41.00;36.25;;;;;13.52;59.21;102104.53;5070640;28;45382;-83
2022/04/16 06:32:56;;;;;;;;;40.33;35.67;;;;;13.53;59.44;102095.78;5071467;28;45914;-82
2022/04/16 06:35:22;;;;;;;;;34.50;32.00;;;;;13.67;59.14;102129.91;5070655;28;46066;-83
2022/04/16 06:37:47;;;;;;;;;42.50;36.75;;;;;13.51;59.40;102084.25;5070634;28;45471;-83
2022/04/16 06:40:13;;;;;;;;;40.50;35.25;;;;;13.60;59.71;102109.34;5070241;28;45644;-82
2022/04/16 06:42:39;;;;;;;;;36.50;33.75;;;;;13.84;59.34;102137.66;5070705;28;45637;-82
2022/04/16 06:45:07;;;;;;;;;42.25;35.25;;;;;13.61;59.23;102091.75;5052058;28;47265;-82
2022/04/16 06:47:33;;;;;;;;;37.50;34.00;;;;;13.60;59.21;102084.66;5070533;28;45879;-83
2022/04/16 06:49:59;;;;;;;;;41.00;35.25;;;;;13.85;59.29;102124.53;5066047;28;45866;-83
2022/04/16 06:52:24;;;;;;;;;37.00;33.25;;;;;13.88;59.36;102122.00;5063599;27;45815;-83
2022/04/16 06:54:50;;;;;;;;;38.50;34.50;;;;;13.81;59.29;102089.97;5079417;27;45635;-82
2022/04/16 06:57:16;;;;;;;;;41.00;36.00;;;;;14.01;59.26;102125.19;5068935;28;45871;-82
2022/04/16 06:59:42;;;;;;;;;44.50;38.00;;;;;13.81;58.90;102085.59;5045301;28;45559;-83
2022/04/16 07:02:09;;;;;;;;;46.50;38.75;;;;;13.86;59.09;102097.25;5050468;28;45419;-84
2022/04/16 07:04:34;;;;;;;;;45.25;37.75;;;;;13.82;59.14;102075.91;5050246;28;46492;-82
2022/04/16 07:07:00;;;;;;;;;39.25;35.25;;;;;13.98;59.01;102096.84;5032115;28;45371;-83
2022/04/16 07:09:26;;;;;;;;;43.75;37.25;;;;;14.06;58.64;102118.34;5031097;28;45809;-81
2022/04/16 07:11:51;;;;;;;;;45.25;34.75;;;;;13.74;58.62;102065.00;5055144;28;45605;-84
2022/04/16 07:14:16;;;;;;;;;42.75;36.50;;;;;14.00;58.72;102115.44;5065209;27;46934;-82
2022/04/16 07:16:42;;;;;;;;;40.75;34.50;;;;;13.79;58.79;102065.19;5089612;27;45764;-83
2022/04/16 07:19:09;;;;;;;;;42.50;36.25;;;;;13.90;59.14;102091.25;5072465;27;45468;-83
2022/04/16 07:21:35;;;;;;;;;38.00;34.50;;;;;14.13;58.96;102130.97;5090321;27;45502;-84
2022/04/16 07:24:00;;;;;;;;;41.25;35.00;;;;;14.09;58.48;102110.56;5075773;27;45621;-82
2022/04/16 07:26:25;;;;;;;;;44.75;36.25;;;;;13.96;58.77;102079.16;5070282;28;45378;-84
2022/04/16 07:28:51;;;;;;;;;45.50;37.00;;;;;14.23;58.55;102127.88;5070764;28;46080;-82
2022/04/16 07:31:16;;;;;;;;;39.00;34.75;;;;;14.28;58.53;102128.06;5052014;28;45568;-83
2022/04/16 07:33:41;;;;;;;;;45.25;36.75;;;;;14.12;58.48;102081.56;5070389;28;45444;-82
2022/04/16 07:36:07;;;;;;;;;40.00;34.00;;;;;14.01;58.76;102051.16;5070337;28;45729;-83
2022/04/16 07:38:32;;;;;;;;;41.75;35.25;;;;;14.10;58.40;102067.41;5068013;28;45829;-83
2022/04/16 07:40:57;;;;;;;;;42.00;37.00;;;;;14.21;58.64;102076.69;5070245;28;45982;-83
2022/04/16 07:43:23;;;;;;;;;35.33;32.00;;;;;14.55;58.72;102134.53;5069726;28;46174;-82
2022/04/16 07:45:48;;;;;;;;;41.25;35.25;;;;;14.32;58.37;102090.34;5070254;28;45409;-85
2022/04/16 07:48:13;;;;;;;;;38.00;34.25;;;;;14.36;58.49;102092.25;5071384;28;45358;-86
2022/04/16 07:50:39;;;;;;;;;38.33;33.67;;;;;14.58;58.17;102123.16;5071961;28;45287;-85
2022/04/16 07:53:06;;;;;;;;;42.00;37.50;;;;;14.06;57.99;102037.28;5062157;28;46173;-84
2022/04/16 07:55:32;;;;;;;;;46.25;38.00;;;;;14.38;57.95;102101.16;5089028;27;45947;-85
2022/04/16 07:57:58;;;;;;;;;44.75;36.00;;;;;14.28;58.06;102067.25;5061179;28;45460;-84
2022/04/16 08:00:23;;;;;;;;;36.25;32.75;;;;;14.79;58.05;102153.16;5066802;28;45966;-83
2022/04/16 08:02:49;;;;;;;;;34.50;32.75;;;;;14.41;57.89;102069.53;5069934;28;46221;-83
2022/04/16 08:05:14;;;;;;;;;41.25;34.00;;;;;14.77;57.52;102136.28;5069416;28;45519;-83
2022/04/16 08:07:39;;;;;;;;;36.50;33.25;;;;;14.58;57.74;102102.00;5070930;28;45342;-84
2022/04/16 08:10:05;;;;;;;;;39.00;34.75;;;;;14.65;57.25;102104.97;5075393;27;45587;-82
2022/04/16 08:12:31;;;;;;;;;35.00;31.75;;;;;14.91;57.71;102136.84;5091935;27;45607;-83
2022/04/16 08:14:56;;;;;;;;;35.00;32.25;;;;;14.87;57.43;102124.31;5075188;27;45421;-83
2022/04/16 08:17:21;;;;;;;;;37.67;33.33;;;;;15.07;57.81;102155.13;5093705;27;45793;-83
2022/04/16 08:19:47;;;;;;;;;34.50;32.25;;;;;15.13;57.62;102151.81;5094060;27;45340;-84
2022/04/16 08:22:17;;;;;;;;;43.25;36.00;;;;;15.09;57.39;102147.25;5085805;27;45639;-82
2022/04/16 08:24:53;;;;;;;;;37.25;33.50;;;;;14.88;57.10;102100.56;5043562;28;45504;-82
2022/04/16 08:27:19;;;;;;;;;37.50;32.75;;;;;14.92;57.22;102107.75;5068484;28;46288;-83
2022/04/16 08:29:44;;;;;;;;;34.25;32.00;;;;;14.92;56.88;102099.81;5073174;28;45307;-82
2022/04/16 08:32:09;;;;;;;;;35.25;32.50;;;;;15.06;57.14;102120.63;5073010;28;46542;-83
2022/04/16 08:34:35;;;;;;;;;39.00;34.00;;;;;15.01;57.19;102104.56;5073062;28;45453;-82
2022/04/16 08:37:00;;;;;;;;;42.00;34.00;;;;;15.06;56.39;102110.94;5073021;28;45660;-84
2022/04/16 08:39:27;;;;;;;;;38.00;33.75;;;;;15.14;56.46;102121.84;5072532;28;45817;-83
2022/04/16 08:41:55;;;;;;;;;37.00;32.50;;;;;15.23;56.53;102138.09;5071313;28;47488;-83
2022/04/16 08:44:22;;;;;;;;;37.50;31.25;;;;;15.12;56.86;102119.16;5072340;28;45386;-83
2022/04/16 08:46:47;;;;;;;;;43.75;36.00;;;;;15.20;56.79;102124.72;5073485;28;45630;-82
2022/04/16 08:49:15;;;;;;;;;32.00;30.00;;;;;15.51;56.60;102169.16;5061311;28;45559;-82
2022/04/16 08:51:43;;;;;;;;;31.50;29.25;;;;;15.21;56.33;102114.16;5084312;27;46347;-83
2022/04/16 08:54:08;;;;;;;;;41.00;33.00;;;;;15.48;56.27;102155.81;5085836;27;45996;-83
2022/04/16 08:56:34;;;;;;;;;39.00;34.50;;;;;15.30;56.54;102118.91;5070152;28;45863;-82
2022/04/16 08:58:59;;;;;;;;;40.75;35.25;;;;;15.48;56.11;102137.25;5072436;28;45397;-82
2022/04/16 09:01:25;;;;;;;;;38.33;33.67;;;;;15.22;56.08;102093.88;5071815;28;45974;-83
2022/04/16 09:03:53;;;;;;;;;32.00;31.25;;;;;15.59;56.25;102151.78;5072508;28;45658;-82
2022/04/16 09:06:23;;;;;;;;;37.25;33.00;;;;;15.59;55.73;102129.69;5066383;27;45553;-83
2022/04/16 09:08:48;;;;;;;;;35.50;32.00;;;;;15.66;55.44;102147.63;5092847;27;45531;-83
2022/04/16 09:11:13;;;;;;;;;33.00;30.00;;;;;15.66;55.75;102139.69;5092531;27;46575;-82
2022/04/16 09:13:56;;;;;;;;;34.75;30.75;;;;;15.51;55.84;102100.25;5092434;27;45445;-84
2022/04/16 09:16:23;;;;;;;;;29.75;27.50;;;;;15.87;55.96;102142.22;5092506;27;45510;-83
2022/04/16 09:18:50;;;;;;;;;33.75;31.25;;;;;15.82;55.47;102136.75;5083505;27;45465;-82
2022/04/16 09:21:16;;;;;;;;;29.50;27.75;;;;;16.01;55.27;102167.47;5052892;28;47127;-82
2022/04/16 09:23:51;;;;;;;;;37.50;33.50;;;;;15.88;55.22;102139.63;5064053;28;45939;-83
2022/04/16 09:26:34;;;;;;;;;34.50;30.75;;;;;15.93;55.08;102140.69;5050468;28;45731;-83
2022/04/16 09:29:09;;;;;;;;;32.50;29.75;;;;;16.08;55.14;102163.28;5072328;28;45360;-83
2022/04/16 09:31:38;;;;;;;;;33.25;30.50;;;;;16.04;55.31;102145.47;5053678;28;48124;-83
2022/04/16 09:34:15;;;;;;;;;31.50;30.25;;;;;15.95;55.20;102127.47;5072220;28;45905;-83
2022/04/16 09:36:40;;;;;;;;;30.00;28.00;;;;;15.74;54.73;102079.91;5045660;28;45269;-83
2022/04/16 09:39:07;;;;;;;;;38.00;32.00;;;;;15.79;54.72;102080.97;5071872;28;45474;-83
2022/04/16 09:41:41;;;;;;;;;31.00;29.25;;;;;16.09;54.87;102126.19;5071737;28;45676;-84
2022/04/16 09:44:25;;;;;;;;;33.50;28.00;;;;;16.28;55.13;102146.28;5072085;28;45562;-82
2022/04/16 09:46:52;;;;;;;;;29.75;29.00;;;;;16.18;54.81;102133.56;5040937;28;45490;-83
2022/04/16 09:49:18;;;;;;;;;30.25;28.50;;;;;16.31;54.31;102151.72;5076822;27;45454;-83
2022/04/16 09:51:47;;;;;;;;;30.25;29.25;;;;;16.10;54.58;102105.88;5053833;28;46963;-82
2022/04/16 09:54:13;;;;;;;;;25.00;25.00;;;;;16.42;54.43;102150.31;5087769;27;45979;-83
2022/04/16 09:56:41;;;;;;;;;25.00;23.50;;;;;16.42;54.43;102137.03;5092374;27;45673;-83
2022/04/16 09:59:08;;;;;;;;;24.25;24.00;;;;;16.26;54.00;102100.25;5092110;27;45691;-84
2022/04/16 10:01:35;;;;;;;;;31.75;29.00;;;;;16.61;53.92;102150.94;5072962;27;47560;-82
2022/04/16 10:04:01;;;;;;;;;28.25;26.50;;;;;16.52;54.30;102128.53;5080919;27;45549;-83
2022/04/16 10:06:30;;;;;;;;;28.75;27.75;;;;;16.66;54.18;102144.00;5071046;28;45860;-82
2022/04/16 10:09:13;;;;;;;;;29.50;27.00;;;;;16.72;53.93;102123.00;5052938;28;45490;-83
2022/04/16 10:12:59;;;;;;;;;26.50;23.50;;;;;16.87;53.44;102143.81;5071267;28;46298;-84
2022/04/16 10:14:33;;;;;;;;;22.00;21.75;;;;;16.98;53.46;102143.28;5071108;27;45997;-83
2022/04/16 10:17:25;;;;;;;;;25.00;23.00;;;;;16.86;53.19;102116.38;5069051;28;45594;-82
2022/04/16 10:19:52;;;;;;;;;25.00;25.00;;;;;16.86;53.61;102094.22;5071872;28;45491;-81
2022/04/16 10:22:25;;;;;;;;;27.00;24.25;;;;;17.10;53.00;102123.28;5070557;28;45450;-83
2022/04/16 10:24:57;;;;;;;;;22.50;21.00;;;;;17.32;53.00;102151.38;5071649;28;45453;-83
2022/04/16 10:27:28;;;;;;;;;24.00;21.75;;;;;17.07;52.24;102092.19;5050097;28;45967;-84
2022/04/16 10:29:59;;;;;;;;;20.50;17.25;;;;;17.42;51.34;102130.41;5052453;28;45533;-83
2022/04/16 10:32:28;;;;;;;;;19.25;18.75;;;;;17.06;51.38;102063.84;5070946;28;46758;-82
2022/04/16 10:35:03;;;;;;;;;22.25;21.75;;;;;17.20;51.02;102080.19;5052761;28;45908;-83
2022/04/16 10:37:37;;;;;;;;;18.75;18.75;;;;;17.31;50.42;102080.47;5070312;28;45588;-83
2022/04/16 10:40:17;;;;;;;;;19.25;19.00;;;;;17.50;50.92;102104.06;5070991;28;45545;-82
2022/04/16 10:42:59;;;;;;;;;25.50;25.50;;;;;17.72;51.11;102125.06;5056066;28;45412;-83
2022/04/16 10:45:25;;;;;;;;;22.75;21.75;;;;;17.69;49.99;102116.13;5074576;27;46371;-82
2022/04/16 10:47:52;;;;;;;;;20.75;20.50;;;;;17.67;50.04;102107.19;5072181;28;45561;-84
2022/04/16 10:50:19;;;;;;;;;21.25;20.50;;;;;17.83;50.99;102125.38;5046862;28;45703;-84
2022/04/16 10:52:52;;;;;;;;;22.75;20.75;;;;;17.56;50.51;102059.03;5071699;28;46725;-85
2022/04/16 10:55:20;;;;;;;;;15.50;15.50;;;;;17.66;50.20;102065.50;5071409;28;45988;-84
2022/04/16 10:57:56;;;;;;;;;18.75;18.75;;;;;17.82;50.06;102078.38;5071231;28;45426;-85
2022/04/16 11:00:21;;;;;;;;;23.00;22.00;;;;;17.97;48.99;102099.16;5070279;27;45682;-84
2022/04/16 11:02:47;;;;;;;;;18.50;18.25;;;;;17.86;49.25;102061.63;5073630;27;48155;-83
2022/04/16 11:05:12;;;;;;;;;16.75;16.75;;;;;18.01;48.75;102088.63;5089141;27;45705;-84
2022/04/16 11:07:39;;;;;;;;;16.75;16.50;;;;;18.27;48.54;102126.56;5090869;27;45510;-83
2022/04/16 11:10:10;;;;;;;;;16.00;15.00;;;;;18.28;48.46;102116.81;5072617;27;45529;-82
2022/04/16 11:12:42;;;;;;;;;12.25;12.25;;;;;18.20;47.45;102100.63;5068870;27;46123;-83
2022/04/16 11:15:13;;;;;;;;;15.00;15.00;;;;;18.26;46.75;102106.09;5065834;28;45430;-82
2022/04/16 11:17:39;;;;;;;;;10.00;9.25;;;;;18.23;47.65;102115.81;5052246;28;45390;-83
2022/04/16 11:20:06;;;;;;;;;11.75;11.75;;;;;18.03;46.28;102081.59;5070000;28;45357;-82